sensor_id;sensor_type;location;lat;lon;timestamp;pressure;altitude;pressure_sealevel;temperature;humidity
75317;BME280;63913;51.492;10.368;2022-10-16T00:01:11;98020.81;;;14.19;84.72
75317;BME280;63913;51.492;10.368;2022-10-16T00:03:37;98020.78;;;14.12;84.62
75317;BME280;63913;51.492;10.368;2022-10-16T00:06:04;98020.78;;;14.12;84.94
75317;BME280;63913;51.492;10.368;2022-10-16T00:08:30;98013.03;;;14.11;84.65
75317;BME280;63913;51.492;10.368;2022-10-16T00:11:02;98025.06;;;14.03;84.17
75317;BME280;63913;51.492;10.368;2022-10-16T00:13:30;98030.28;;;13.94;84.33
75317;BME280;63913;51.492;10.368;2022-10-16T00:15:56;98023.38;;;13.93;84.80
75317;BME280;63913;51.492;10.368;2022-10-16T00:18:22;98033.69;;;13.97;84.72
75317;BME280;63913;51.492;10.368;2022-10-16T00:20:48;98036.25;;;13.87;84.35
75317;BME280;63913;51.492;10.368;2022-10-16T00:23:13;98035.41;;;13.83;84.63
75317;BME280;63913;51.492;10.368;2022-10-16T00:25:38;98035.38;;;13.72;84.52
75317;BME280;63913;51.492;10.368;2022-10-16T00:28:04;98040.53;;;13.68;85.44
75317;BME280;63913;51.492;10.368;2022-10-16T00:30:29;98044.84;;;13.70;86.17
75317;BME280;63913;51.492;10.368;2022-10-16T00:32:55;98037.09;;;13.72;86.05
75317;BME280;63913;51.492;10.368;2022-10-16T00:35:21;98048.31;;;13.82;86.07
75317;BME280;63913;51.492;10.368;2022-10-16T00:37:46;98054.34;;;13.82;85.79
75317;BME280;63913;51.492;10.368;2022-10-16T00:40:12;98064.72;;;13.90;86.02
75317;BME280;63913;51.492;10.368;2022-10-16T00:42:37;98050.03;;;13.87;86.05
75317;BME280;63913;51.492;10.368;2022-10-16T00:45:03;98059.53;;;13.91;85.80
75317;BME280;63913;51.492;10.368;2022-10-16T00:52:36;98046.63;;;13.93;86.26
75317;BME280;63913;51.492;10.368;2022-10-16T00:55:05;98049.22;;;13.93;86.43
75317;BME280;63913;51.492;10.368;2022-10-16T00:57:32;98046.63;;;13.94;86.31
75317;BME280;63913;51.492;10.368;2022-10-16T00:59:58;98047.50;;;13.98;86.03
75317;BME280;63913;51.492;10.368;2022-10-16T01:02:24;98042.34;;;14.01;85.52
75317;BME280;63913;51.492;10.368;2022-10-16T01:04:51;98042.31;;;13.98;85.59
75317;BME280;63913;51.492;10.368;2022-10-16T01:12:35;98038.84;;;13.96;85.32
75317;BME280;63913;51.492;10.368;2022-10-16T01:18:00;98047.47;;;13.86;86.24
75317;BME280;63913;51.492;10.368;2022-10-16T01:20:32;98049.19;;;13.87;86.57
75317;BME280;63913;51.492;10.368;2022-10-16T01:26:18;98057.81;;;13.98;85.98
75317;BME280;63913;51.492;10.368;2022-10-16T01:32:05;98051.81;;;14.00;85.86
75317;BME280;63913;51.492;10.368;2022-10-16T01:34:42;98054.38;;;14.03;85.86
75317;BME280;63913;51.492;10.368;2022-10-16T01:37:16;98063.00;;;14.05;85.60
75317;BME280;63913;51.492;10.368;2022-10-16T01:39:46;98069.91;;;14.06;85.89
75317;BME280;63913;51.492;10.368;2022-10-16T01:42:20;98067.34;;;14.09;85.36
75317;BME280;63913;51.492;10.368;2022-10-16T01:44:48;98071.66;;;14.09;85.94
75317;BME280;63913;51.492;10.368;2022-10-16T01:47:15;98072.50;;;14.09;85.50
75317;BME280;63913;51.492;10.368;2022-10-16T01:49:41;98064.75;;;14.09;86.00
75317;BME280;63913;51.492;10.368;2022-10-16T01:52:13;98072.47;;;14.11;85.91
75317;BME280;63913;51.492;10.368;2022-10-16T01:54:42;98063.00;;;14.11;85.65
75317;BME280;63913;51.492;10.368;2022-10-16T01:57:10;98064.75;;;14.14;85.66
75317;BME280;63913;51.492;10.368;2022-10-16T01:59:43;98065.59;;;14.13;86.25
75317;BME280;63913;51.492;10.368;2022-10-16T02:02:10;98069.06;;;14.15;85.74
75317;BME280;63913;51.492;10.368;2022-10-16T02:04:57;98071.66;;;14.17;85.59
75317;BME280;63913;51.492;10.368;2022-10-16T02:07:23;98074.22;;;14.15;85.59
75317;BME280;63913;51.492;10.368;2022-10-16T02:09:48;98079.41;;;14.18;85.64
75317;BME280;63913;51.492;10.368;2022-10-16T02:12:29;98077.66;;;14.20;85.58
75317;BME280;63913;51.492;10.368;2022-10-16T02:14:55;98075.94;;;14.21;85.03
75317;BME280;63913;51.492;10.368;2022-10-16T02:17:21;98075.97;;;14.18;84.93
75317;BME280;63913;51.492;10.368;2022-10-16T02:19:48;98081.13;;;14.24;84.34
75317;BME280;63913;51.492;10.368;2022-10-16T02:22:26;98079.41;;;14.24;84.40
75317;BME280;63913;51.492;10.368;2022-10-16T02:25:04;98083.72;;;14.24;84.17
75317;BME280;63913;51.492;10.368;2022-10-16T02:30:49;98091.47;;;14.22;83.83
75317;BME280;63913;51.492;10.368;2022-10-16T02:33:16;98088.00;;;14.20;83.83
75317;BME280;63913;51.492;10.368;2022-10-16T02:35:44;98080.25;;;14.20;84.10
75317;BME280;63913;51.492;10.368;2022-10-16T02:38:12;98082.84;;;14.17;84.25
75317;BME280;63913;51.492;10.368;2022-10-16T02:40:39;98095.78;;;14.19;84.43
75317;BME280;63913;51.492;10.368;2022-10-16T02:43:05;98100.94;;;14.20;84.32
75317;BME280;63913;51.492;10.368;2022-10-16T02:45:31;98100.09;;;14.21;84.09
75317;BME280;63913;51.492;10.368;2022-10-16T02:47:56;98095.78;;;14.19;84.69
75317;BME280;63913;51.492;10.368;2022-10-16T02:50:22;98091.47;;;14.18;84.70
75317;BME280;63913;51.492;10.368;2022-10-16T02:52:47;98086.28;;;14.19;84.68
75317;BME280;63913;51.492;10.368;2022-10-16T02:55:13;98087.16;;;14.20;84.63
75317;BME280;63913;51.492;10.368;2022-10-16T02:57:38;98081.97;;;14.20;84.76
75317;BME280;63913;51.492;10.368;2022-10-16T03:00:07;98078.53;;;14.19;85.03
75317;BME280;63913;51.492;10.368;2022-10-16T03:02:33;98080.28;;;14.19;84.77
75317;BME280;63913;51.492;10.368;2022-10-16T03:04:58;98088.03;;;14.17;84.96
75317;BME280;63913;51.492;10.368;2022-10-16T03:07:23;98093.22;;;14.19;85.18
75317;BME280;63913;51.492;10.368;2022-10-16T03:09:48;98094.91;;;14.20;85.30
75317;BME280;63913;51.492;10.368;2022-10-16T03:12:14;98101.81;;;14.24;84.72
75317;BME280;63913;51.492;10.368;2022-10-16T03:14:39;98094.06;;;14.25;84.43
75317;BME280;63913;51.492;10.368;2022-10-16T03:17:05;98101.81;;;14.22;84.27
75317;BME280;63913;51.492;10.368;2022-10-16T03:19:31;98088.03;;;14.25;84.49
75317;BME280;63913;51.492;10.368;2022-10-16T03:21:56;98085.44;;;14.23;84.32
75317;BME280;63913;51.492;10.368;2022-10-16T03:24:22;98090.63;;;14.23;84.16
75317;BME280;63913;51.492;10.368;2022-10-16T03:26:47;98089.75;;;14.21;83.95
75317;BME280;63913;51.492;10.368;2022-10-16T03:29:13;98096.63;;;14.14;84.39
75317;BME280;63913;51.492;10.368;2022-10-16T03:31:38;98095.78;;;14.09;84.39
75317;BME280;63913;51.492;10.368;2022-10-16T03:34:05;98103.53;;;14.09;84.81
75317;BME280;63913;51.492;10.368;2022-10-16T03:36:31;98094.88;;;14.03;84.60
75317;BME280;63913;51.492;10.368;2022-10-16T03:38:56;98092.28;;;14.03;84.60
75317;BME280;63913;51.492;10.368;2022-10-16T03:41:21;98104.34;;;14.04;84.42
75317;BME280;63913;51.492;10.368;2022-10-16T03:43:46;98109.53;;;14.04;84.45
75317;BME280;63913;51.492;10.368;2022-10-16T03:46:12;98107.81;;;13.98;84.87
75317;BME280;63913;51.492;10.368;2022-10-16T03:48:37;98112.09;;;13.92;84.48
75317;BME280;63913;51.492;10.368;2022-10-16T03:51:02;98118.13;;;13.91;84.68
75317;BME280;63913;51.492;10.368;2022-10-16T03:53:28;98122.44;;;13.95;84.28
75317;BME280;63913;51.492;10.368;2022-10-16T03:55:53;98115.53;;;13.91;84.66
75317;BME280;63913;51.492;10.368;2022-10-16T03:58:18;98117.28;;;13.93;84.32
75317;BME280;63913;51.492;10.368;2022-10-16T04:00:45;98126.75;;;13.91;84.47
75317;BME280;63913;51.492;10.368;2022-10-16T04:03:12;98125.88;;;13.89;84.18
75317;BME280;63913;51.492;10.368;2022-10-16T04:05:38;98119.84;;;13.86;84.58
75317;BME280;63913;51.492;10.368;2022-10-16T04:08:03;98128.41;;;13.80;84.49
75317;BME280;63913;51.492;10.368;2022-10-16T04:10:29;98134.44;;;13.81;84.25
75317;BME280;63913;51.492;10.368;2022-10-16T04:12:54;98132.72;;;13.80;84.07
75317;BME280;63913;51.492;10.368;2022-10-16T04:15:22;98142.22;;;13.81;83.93
75317;BME280;63913;51.492;10.368;2022-10-16T04:17:47;98143.06;;;13.77;84.32
75317;BME280;63913;51.492;10.368;2022-10-16T04:20:13;98135.25;;;13.70;84.79
75317;BME280;63913;51.492;10.368;2022-10-16T04:22:38;98144.78;;;13.70;84.50
75317;BME280;63913;51.492;10.368;2022-10-16T04:25:04;98132.69;;;13.66;84.67
75317;BME280;63913;51.492;10.368;2022-10-16T04:27:29;98137.84;;;13.66;84.37
75317;BME280;63913;51.492;10.368;2022-10-16T04:29:59;98143.88;;;13.60;84.62
75317;BME280;63913;51.492;10.368;2022-10-16T04:32:24;98155.88;;;13.55;84.54
75317;BME280;63913;51.492;10.368;2022-10-16T04:34:50;98154.16;;;13.56;84.51
75317;BME280;63913;51.492;10.368;2022-10-16T04:37:15;98146.38;;;13.54;84.18
75317;BME280;63913;51.492;10.368;2022-10-16T04:39:41;98148.16;;;13.54;83.87
75317;BME280;63913;51.492;10.368;2022-10-16T04:42:06;98147.25;;;13.50;84.47
75317;BME280;63913;51.492;10.368;2022-10-16T04:44:31;98160.16;;;13.50;84.39
75317;BME280;63913;51.492;10.368;2022-10-16T04:46:56;98154.16;;;13.53;83.95
75317;BME280;63913;51.492;10.368;2022-10-16T04:49:22;98153.28;;;13.51;83.62
75317;BME280;63913;51.492;10.368;2022-10-16T04:51:47;98154.13;;;13.48;83.88
75317;BME280;63913;51.492;10.368;2022-10-16T04:54:13;98154.13;;;13.45;83.60
75317;BME280;63913;51.492;10.368;2022-10-16T04:56:38;98158.44;;;13.45;83.36
75317;BME280;63913;51.492;10.368;2022-10-16T04:59:11;98153.25;;;13.48;83.35
75317;BME280;63913;51.492;10.368;2022-10-16T05:01:37;98166.16;;;13.45;83.65
75317;BME280;63913;51.492;10.368;2022-10-16T05:04:02;98168.75;;;13.48;83.56
75317;BME280;63913;51.492;10.368;2022-10-16T05:06:27;98173.91;;;13.46;83.31
75317;BME280;63913;51.492;10.368;2022-10-16T05:08:53;98179.09;;;13.45;83.43
75317;BME280;63913;51.492;10.368;2022-10-16T05:11:18;98182.50;;;13.47;83.34
75317;BME280;63913;51.492;10.368;2022-10-16T05:13:43;98180.84;;;13.52;83.10
75317;BME280;63913;51.492;10.368;2022-10-16T05:16:08;98161.00;;;13.49;83.22
75317;BME280;63913;51.492;10.368;2022-10-16T05:18:34;98155.84;;;13.49;83.06
75317;BME280;63913;51.492;10.368;2022-10-16T05:20:59;98160.16;;;13.55;83.40
75317;BME280;63913;51.492;10.368;2022-10-16T05:23:24;98155.03;;;13.58;82.79
75317;BME280;63913;51.492;10.368;2022-10-16T05:25:57;98151.59;;;13.57;82.47
75317;BME280;63913;51.492;10.368;2022-10-16T05:28:24;98155.03;;;13.59;82.11
75317;BME280;63913;51.492;10.368;2022-10-16T05:30:49;98164.53;;;13.62;82.35
75317;BME280;63913;51.492;10.368;2022-10-16T05:33:15;98169.72;;;13.62;81.52
75317;BME280;63913;51.492;10.368;2022-10-16T05:35:40;98159.38;;;13.66;81.27
75317;BME280;63913;51.492;10.368;2022-10-16T05:38:06;98156.78;;;13.63;80.89
75317;BME280;63913;51.492;10.368;2022-10-16T05:40:31;98149.03;;;13.63;81.35
75317;BME280;63913;51.492;10.368;2022-10-16T05:42:56;98134.38;;;13.64;81.15
75317;BME280;63913;51.492;10.368;2022-10-16T05:45:22;98134.41;;;13.67;81.34
75317;BME280;63913;51.492;10.368;2022-10-16T05:47:47;98105.97;;;13.65;81.03
75317;BME280;63913;51.492;10.368;2022-10-16T05:50:13;98112.91;;;13.69;81.03
75317;BME280;63913;51.492;10.368;2022-10-16T05:52:38;98134.44;;;13.68;81.58
75317;BME280;63913;51.492;10.368;2022-10-16T05:55:04;98145.59;;;13.70;82.00
75317;BME280;63913;51.492;10.368;2022-10-16T05:57:29;98163.69;;;13.72;81.78
75317;BME280;63913;51.492;10.368;2022-10-16T05:59:55;98174.06;;;13.73;81.87
75317;BME280;63913;51.492;10.368;2022-10-16T06:02:20;98184.34;;;13.66;82.63
75317;BME280;63913;51.492;10.368;2022-10-16T06:04:45;98190.34;;;13.63;82.51
75317;BME280;63913;51.492;10.368;2022-10-16T06:07:11;98193.78;;;13.59;82.52
75317;BME280;63913;51.492;10.368;2022-10-16T06:09:36;98204.09;;;13.52;83.33
75317;BME280;63913;51.492;10.368;2022-10-16T06:12:01;98212.66;;;13.48;83.47
75317;BME280;63913;51.492;10.368;2022-10-16T06:14:27;98213.53;;;13.48;83.71
75317;BME280;63913;51.492;10.368;2022-10-16T06:16:52;98215.25;;;13.49;83.94
75317;BME280;63913;51.492;10.368;2022-10-16T06:19:17;98224.72;;;13.49;83.86
75317;BME280;63913;51.492;10.368;2022-10-16T06:21:43;98223.88;;;13.51;83.67
75317;BME280;63913;51.492;10.368;2022-10-16T06:24:09;98222.16;;;13.55;83.69
75317;BME280;63913;51.492;10.368;2022-10-16T06:26:34;98217.88;;;13.55;83.67
75317;BME280;63913;51.492;10.368;2022-10-16T06:29:00;98226.53;;;13.60;83.30
75317;BME280;63913;51.492;10.368;2022-10-16T06:31:26;98242.91;;;13.64;83.47
75317;BME280;63913;51.492;10.368;2022-10-16T06:33:56;98242.03;;;13.62;83.42
75317;BME280;63913;51.492;10.368;2022-10-16T06:36:22;98250.66;;;13.65;83.18
75317;BME280;63913;51.492;10.368;2022-10-16T06:38:47;98255.84;;;13.71;82.81
75317;BME280;63913;51.492;10.368;2022-10-16T06:41:15;98249.88;;;13.77;82.94
75317;BME280;63913;51.492;10.368;2022-10-16T06:43:40;98254.19;;;13.80;83.14
75317;BME280;63913;51.492;10.368;2022-10-16T06:46:07;98261.94;;;13.77;82.94
75317;BME280;63913;51.492;10.368;2022-10-16T06:48:34;98268.81;;;13.76;82.98
75317;BME280;63913;51.492;10.368;2022-10-16T06:51:06;98264.50;;;13.77;83.02
75317;BME280;63913;51.492;10.368;2022-10-16T06:53:33;98280.06;;;13.84;82.69
75317;BME280;63913;51.492;10.368;2022-10-16T06:56:20;98285.25;;;13.86;82.19
75317;BME280;63913;51.492;10.368;2022-10-16T06:58:46;98298.16;;;13.87;82.71
75317;BME280;63913;51.492;10.368;2022-10-16T07:01:13;98301.59;;;13.88;82.70
75317;BME280;63913;51.492;10.368;2022-10-16T07:03:41;98292.97;;;13.87;82.78
75317;BME280;63913;51.492;10.368;2022-10-16T07:06:08;98280.06;;;13.89;82.48
75317;BME280;63913;51.492;10.368;2022-10-16T07:08:36;98279.22;;;13.90;81.78
75317;BME280;63913;51.492;10.368;2022-10-16T07:11:03;98292.16;;;13.96;81.73
75317;BME280;63913;51.492;10.368;2022-10-16T07:13:28;98299.94;;;13.96;81.76
75317;BME280;63913;51.492;10.368;2022-10-16T07:15:54;98326.66;;;13.98;81.36
75317;BME280;63913;51.492;10.368;2022-10-16T07:18:19;98342.22;;;14.02;80.96
75317;BME280;63913;51.492;10.368;2022-10-16T07:20:44;98337.03;;;14.05;80.60
75317;BME280;63913;51.492;10.368;2022-10-16T07:23:10;98335.34;;;14.12;81.08
75317;BME280;63913;51.492;10.368;2022-10-16T07:25:35;98335.38;;;14.15;80.96
75317;BME280;63913;51.492;10.368;2022-10-16T07:28:00;98331.94;;;14.19;80.13
75317;BME280;63913;51.492;10.368;2022-10-16T07:30:26;98333.69;;;14.22;79.97
75317;BME280;63913;51.492;10.368;2022-10-16T07:32:51;98331.09;;;14.23;79.65
75317;BME280;63913;51.492;10.368;2022-10-16T07:35:16;98340.59;;;14.23;78.87
75317;BME280;63913;51.492;10.368;2022-10-16T07:37:45;98334.53;;;14.21;78.50
75317;BME280;63913;51.492;10.368;2022-10-16T07:40:11;98331.09;;;14.19;77.82
75317;BME280;63913;51.492;10.368;2022-10-16T07:42:37;98328.50;;;14.22;78.55
75317;BME280;63913;51.492;10.368;2022-10-16T07:45:02;98346.63;;;14.19;78.02
75317;BME280;63913;51.492;10.368;2022-10-16T07:47:28;98347.47;;;14.16;78.58
75317;BME280;63913;51.492;10.368;2022-10-16T07:49:53;98362.97;;;14.16;78.72
75317;BME280;63913;51.492;10.368;2022-10-16T07:52:19;98358.66;;;14.17;78.13
75317;BME280;63913;51.492;10.368;2022-10-16T07:54:44;98365.53;;;14.14;77.57
75317;BME280;63913;51.492;10.368;2022-10-16T07:57:09;98369.03;;;14.18;77.88
75317;BME280;63913;51.492;10.368;2022-10-16T07:59:38;98373.31;;;14.18;77.59
75317;BME280;63913;51.492;10.368;2022-10-16T08:02:07;98366.41;;;14.20;78.07
75317;BME280;63913;51.492;10.368;2022-10-16T08:04:32;98359.53;;;14.20;77.63
75317;BME280;63913;51.492;10.368;2022-10-16T08:07:00;98369.06;;;14.24;77.55
75317;BME280;63913;51.492;10.368;2022-10-16T08:09:39;98366.41;;;14.20;77.23
75317;BME280;63913;51.492;10.368;2022-10-16T08:12:04;98364.72;;;14.19;76.63
75317;BME280;63913;51.492;10.368;2022-10-16T08:14:30;98381.97;;;14.23;77.05
75317;BME280;63913;51.492;10.368;2022-10-16T08:17:08;98380.28;;;14.26;77.65
75317;BME280;63913;51.492;10.368;2022-10-16T08:19:33;98389.75;;;14.30;77.18
75317;BME280;63913;51.492;10.368;2022-10-16T08:22:00;98401.88;;;14.33;76.24
75317;BME280;63913;51.492;10.368;2022-10-16T08:24:28;98389.81;;;14.38;75.94
75317;BME280;63913;51.492;10.368;2022-10-16T08:26:58;98396.78;;;14.45;76.30
75317;BME280;63913;51.492;10.368;2022-10-16T08:29:24;98402.84;;;14.51;75.99
75317;BME280;63913;51.492;10.368;2022-10-16T08:31:49;98405.47;;;14.56;74.49
75317;BME280;63913;51.492;10.368;2022-10-16T08:34:14;98396.88;;;14.65;74.74
75317;BME280;63913;51.492;10.368;2022-10-16T08:36:40;98403.75;;;14.61;74.54
75317;BME280;63913;51.492;10.368;2022-10-16T08:39:05;98413.25;;;14.58;74.65
75317;BME280;63913;51.492;10.368;2022-10-16T08:44:23;98428.78;;;14.68;75.48
75317;BME280;63913;51.492;10.368;2022-10-16T08:47:19;98426.22;;;14.67;74.75
75317;BME280;63913;51.492;10.368;2022-10-16T08:50:09;98447.78;;;14.64;75.04
75317;BME280;63913;51.492;10.368;2022-10-16T08:52:39;98430.50;;;14.63;74.70
75317;BME280;63913;51.492;10.368;2022-10-16T08:55:06;98439.16;;;14.65;74.58
75317;BME280;63913;51.492;10.368;2022-10-16T08:57:34;98433.16;;;14.74;74.60
75317;BME280;63913;51.492;10.368;2022-10-16T09:00:08;98434.88;;;14.73;74.50
75317;BME280;63913;51.492;10.368;2022-10-16T09:03:13;98449.53;;;14.71;74.38
75317;BME280;63913;51.492;10.368;2022-10-16T09:09:09;98458.19;;;14.73;74.37
75317;BME280;63913;51.492;10.368;2022-10-16T09:20:28;98463.31;;;14.64;73.81
75317;BME280;63913;51.492;10.368;2022-10-16T09:25:30;98446.97;;;14.74;74.26
75317;BME280;63913;51.492;10.368;2022-10-16T09:27:59;98461.63;;;14.77;73.88
75317;BME280;63913;51.492;10.368;2022-10-16T09:30:28;98460.81;;;14.82;74.33
75317;BME280;63913;51.492;10.368;2022-10-16T09:32:57;98468.56;;;14.81;73.98
75317;BME280;63913;51.492;10.368;2022-10-16T09:35:30;98472.00;;;14.84;73.09
75317;BME280;63913;51.492;10.368;2022-10-16T09:38:02;98478.03;;;14.77;73.77
75317;BME280;63913;51.492;10.368;2022-10-16T09:40:33;98479.75;;;14.78;73.95
75317;BME280;63913;51.492;10.368;2022-10-16T09:48:49;98470.38;;;14.97;73.03
75317;BME280;63913;51.492;10.368;2022-10-16T09:51:37;98470.41;;;15.09;72.29
75317;BME280;63913;51.492;10.368;2022-10-16T09:56:35;98468.00;;;15.64;71.55
75317;BME280;63913;51.492;10.368;2022-10-16T09:59:22;98468.00;;;15.82;70.29
75317;BME280;63913;51.492;10.368;2022-10-16T10:01:55;98468.03;;;15.93;69.66
75317;BME280;63913;51.492;10.368;2022-10-16T10:04:25;98482.72;;;16.17;69.81
75317;BME280;63913;51.492;10.368;2022-10-16T10:06:55;98470.63;;;16.20;69.24
75317;BME280;63913;51.492;10.368;2022-10-16T10:09:26;98467.16;;;16.00;69.09
75317;BME280;63913;51.492;10.368;2022-10-16T10:22:42;98479.25;;;16.24;68.38
75317;BME280;63913;51.492;10.368;2022-10-16T10:25:43;98486.16;;;16.49;68.88
75317;BME280;63913;51.492;10.368;2022-10-16T10:30:54;98485.13;;;17.17;65.08
75317;BME280;63913;51.492;10.368;2022-10-16T10:36:27;98490.94;;;17.68;63.64
75317;BME280;63913;51.492;10.368;2022-10-16T10:42:03;98499.63;;;17.61;63.12
75317;BME280;63913;51.492;10.368;2022-10-16T10:45:23;98498.72;;;17.74;63.12
75317;BME280;63913;51.492;10.368;2022-10-16T10:47:47;98505.72;;;17.55;63.69
75317;BME280;63913;51.492;10.368;2022-10-16T10:52:53;98512.91;;;16.95;65.22
75317;BME280;63913;51.492;10.368;2022-10-16T10:55:28;98504.25;;;17.01;64.17
75317;BME280;63913;51.492;10.368;2022-10-16T11:06:46;98514.06;;;18.12;61.28
75317;BME280;63913;51.492;10.368;2022-10-16T11:09:23;98514.88;;;18.18;60.71
75317;BME280;63913;51.492;10.368;2022-10-16T11:12:01;98520.66;;;18.52;59.56
75317;BME280;63913;51.492;10.368;2022-10-16T11:15:00;98512.06;;;18.46;58.65
75317;BME280;63913;51.492;10.368;2022-10-16T11:17:31;98519.22;;;18.16;58.64
75317;BME280;63913;51.492;10.368;2022-10-16T11:22:51;98514.53;;;18.64;57.71
75317;BME280;63913;51.492;10.368;2022-10-16T11:28:11;98530.91;;;17.48;59.57
75317;BME280;63913;51.492;10.368;2022-10-16T11:30:54;98523.97;;;17.47;59.92
75317;BME280;63913;51.492;10.368;2022-10-16T11:33:30;98531.84;;;17.28;60.03
75317;BME280;63913;51.492;10.368;2022-10-16T11:36:14;98523.28;;;17.07;62.06
75317;BME280;63913;51.492;10.368;2022-10-16T11:41:55;98527.66;;;16.92;62.40
75317;BME280;63913;51.492;10.368;2022-10-16T11:47:38;98514.59;;;17.11;62.04
75317;BME280;63913;51.492;10.368;2022-10-16T11:55:52;98511.78;;;17.62;61.12
75317;BME280;63913;51.492;10.368;2022-10-16T11:58:28;98516.91;;;17.77;60.26
75317;BME280;63913;51.492;10.368;2022-10-16T12:01:15;98505.50;;;17.95;60.21
75317;BME280;63913;51.492;10.368;2022-10-16T12:04:02;98515.09;;;17.88;60.78
75317;BME280;63913;51.492;10.368;2022-10-16T12:09:00;98518.41;;;18.13;58.58
75317;BME280;63913;51.492;10.368;2022-10-16T12:16:56;98509.38;;;18.55;54.59
75317;BME280;63913;51.492;10.368;2022-10-16T12:19:23;98518.03;;;18.60;53.85
75317;BME280;63913;51.492;10.368;2022-10-16T12:21:55;98509.38;;;18.55;53.15
75317;BME280;63913;51.492;10.368;2022-10-16T12:24:42;98504.16;;;18.55;52.10
75317;BME280;63913;51.492;10.368;2022-10-16T12:27:25;98514.34;;;18.81;52.37
75317;BME280;63913;51.492;10.368;2022-10-16T12:29:57;98512.72;;;18.72;52.56
75317;BME280;63913;51.492;10.368;2022-10-16T12:32:34;98523.25;;;18.58;52.82
75317;BME280;63913;51.492;10.368;2022-10-16T12:35:05;98521.41;;;18.71;52.38
75317;BME280;63913;51.492;10.368;2022-10-16T12:37:34;98516.75;;;18.99;51.66
75317;BME280;63913;51.492;10.368;2022-10-16T12:40:24;98520.13;;;19.05;51.66
75317;BME280;63913;51.492;10.368;2022-10-16T12:42:50;98527.13;;;19.03;52.03
75317;BME280;63913;51.492;10.368;2022-10-16T12:47:50;98520.78;;;19.27;51.44
75317;BME280;63913;51.492;10.368;2022-10-16T12:50:32;98518.38;;;19.08;51.13
75317;BME280;63913;51.492;10.368;2022-10-16T12:52:59;98519.13;;;19.19;50.70
75317;BME280;63913;51.492;10.368;2022-10-16T12:55:26;98512.09;;;19.24;50.52
75317;BME280;63913;51.492;10.368;2022-10-16T13:00:58;98520.69;;;19.32;50.96
75317;BME280;63913;51.492;10.368;2022-10-16T13:03:57;98524.16;;;19.34;51.62
75317;BME280;63913;51.492;10.368;2022-10-16T13:09:39;98532.72;;;19.45;50.91
75317;BME280;63913;51.492;10.368;2022-10-16T13:18:48;98551.63;;;19.62;50.45
75317;BME280;63913;51.492;10.368;2022-10-16T13:21:43;98548.22;;;19.59;51.87
75317;BME280;63913;51.492;10.368;2022-10-16T13:30:10;98561.13;;;18.90;53.55
75317;BME280;63913;51.492;10.368;2022-10-16T13:32:36;98568.38;;;18.62;53.65
75317;BME280;63913;51.492;10.368;2022-10-16T13:35:22;98571.84;;;18.59;54.65
75317;BME280;63913;51.492;10.368;2022-10-16T13:43:45;98556.06;;;19.57;52.48
75317;BME280;63913;51.492;10.368;2022-10-16T13:46:18;98560.06;;;19.83;51.37
75317;BME280;63913;51.492;10.368;2022-10-16T13:48:55;98564.53;;;19.76;51.92
75317;BME280;63913;51.492;10.368;2022-10-16T13:51:21;98577.00;;;19.51;51.72
75317;BME280;63913;51.492;10.368;2022-10-16T13:53:47;98564.66;;;19.65;51.48
75317;BME280;63913;51.492;10.368;2022-10-16T13:56:15;98561.94;;;19.73;51.84
75317;BME280;63913;51.492;10.368;2022-10-16T13:58:41;98567.66;;;19.99;51.36
75317;BME280;63913;51.492;10.368;2022-10-16T14:01:16;98561.59;;;19.97;50.30
75317;BME280;63913;51.492;10.368;2022-10-16T14:03:49;98565.84;;;20.04;50.96
75317;BME280;63913;51.492;10.368;2022-10-16T14:06:20;98577.03;;;20.12;50.55
75317;BME280;63913;51.492;10.368;2022-10-16T14:08:56;98578.97;;;20.00;50.36
75317;BME280;63913;51.492;10.368;2022-10-16T14:11:30;98578.16;;;19.96;49.70
75317;BME280;63913;51.492;10.368;2022-10-16T14:13:59;98582.94;;;19.64;52.05
75317;BME280;63913;51.492;10.368;2022-10-16T14:16:31;98580.66;;;19.33;52.93
75317;BME280;63913;51.492;10.368;2022-10-16T14:19:04;98590.47;;;19.12;53.24
75317;BME280;63913;51.492;10.368;2022-10-16T14:21:34;98594.28;;;18.77;54.09
75317;BME280;63913;51.492;10.368;2022-10-16T14:24:11;98597.81;;;18.70;54.01
75317;BME280;63913;51.492;10.368;2022-10-16T14:26:43;98592.72;;;18.52;55.95
75317;BME280;63913;51.492;10.368;2022-10-16T14:29:15;98592.78;;;18.44;56.82
75317;BME280;63913;51.492;10.368;2022-10-16T14:31:55;98603.31;;;18.30;55.84
75317;BME280;63913;51.492;10.368;2022-10-16T14:34:52;98599.84;;;18.28;56.41
75317;BME280;63913;51.492;10.368;2022-10-16T14:37:24;98602.50;;;18.16;58.63
75317;BME280;63913;51.492;10.368;2022-10-16T14:39:54;98602.59;;;18.01;60.65
75317;BME280;63913;51.492;10.368;2022-10-16T14:42:22;98612.22;;;17.87;61.19
75317;BME280;63913;51.492;10.368;2022-10-16T14:45:09;98605.38;;;17.72;63.11
75317;BME280;63913;51.492;10.368;2022-10-16T14:47:37;98612.31;;;17.70;64.43
75317;BME280;63913;51.492;10.368;2022-10-16T14:50:12;98610.56;;;17.60;64.68
75317;BME280;63913;51.492;10.368;2022-10-16T14:52:38;98626.22;;;17.59;66.45
75317;BME280;63913;51.492;10.368;2022-10-16T14:55:07;98627.97;;;17.46;66.46
75317;BME280;63913;51.492;10.368;2022-10-16T14:57:35;98614.09;;;17.47;66.12
75317;BME280;63913;51.492;10.368;2022-10-16T15:00:03;98618.47;;;17.40;66.97
75317;BME280;63913;51.492;10.368;2022-10-16T15:02:35;98621.03;;;17.45;67.19
75317;BME280;63913;51.492;10.368;2022-10-16T15:05:24;98616.69;;;17.45;67.98
75317;BME280;63913;51.492;10.368;2022-10-16T15:07:52;98617.59;;;17.40;67.50
75317;BME280;63913;51.492;10.368;2022-10-16T15:10:20;98618.47;;;17.30;68.09
75317;BME280;63913;51.492;10.368;2022-10-16T15:12:55;98614.13;;;17.36;67.88
75317;BME280;63913;51.492;10.368;2022-10-16T15:17:55;98619.34;;;17.30;69.79